createdAt,value
2023-01-20T00:02:26.640Z,96.69215
2023-01-20T00:07:28.436Z,74.80145
2023-01-20T00:12:30.121Z,58.9596
2023-01-20T00:17:31.875Z,44.6485
2023-01-20T00:22:33.555Z,32.2922
2023-01-20T00:27:35.335Z,20.48925
2023-01-20T00:32:37.113Z,11.9874
2023-01-20T00:37:38.828Z,2.1925
2023-01-20T00:42:40.546Z,1.53075
2023-01-20T00:47:42.175Z,2.3237
2023-01-20T00:52:43.841Z,1.16185
2023-01-20T00:57:45.727Z,0
2023-01-20T01:02:47.453Z,0
2023-01-20T01:07:49.050Z,0
2023-01-20T01:12:50.659Z,0
2023-01-20T01:17:52.310Z,0
2023-01-20T01:22:53.939Z,0
2023-01-20T01:27:55.592Z,0
2023-01-20T01:32:57.494Z,0
2023-01-20T01:37:59.351Z,0
2023-01-20T01:43:01.055Z,0
2023-01-20T01:48:02.671Z,0
2023-01-20T01:53:04.322Z,0
2023-01-20T01:58:05.935Z,0
2023-01-20T02:03:07.587Z,0
2023-01-20T02:08:09.529Z,0
2023-01-20T02:13:11.245Z,0
2023-01-20T02:18:13.125Z,0
2023-01-20T02:23:14.984Z,0
2023-01-20T02:28:16.657Z,0
2023-01-20T02:33:18.269Z,0
2023-01-20T02:38:19.969Z,0
2023-01-20T02:43:21.702Z,0
2023-01-20T02:48:23.307Z,0
2023-01-20T02:53:24.974Z,0
2023-01-20T02:58:26.675Z,0
2023-01-20T03:03:28.245Z,0
2023-01-20T03:08:29.911Z,0
2023-01-20T03:13:31.856Z,0
2023-01-20T03:18:33.462Z,0
2023-01-20T03:23:35.335Z,0
2023-01-20T03:28:37.034Z,0
2023-01-20T03:33:38.897Z,0
2023-01-20T03:38:40.514Z,0
2023-01-20T03:43:42.806Z,0
2023-01-20T03:48:44.490Z,0
2023-01-20T03:53:46.125Z,0
2023-01-20T03:58:47.779Z,0
2023-01-20T04:03:49.444Z,0
2023-01-20T04:08:51.426Z,0
2023-01-20T04:13:53.037Z,0
2023-01-20T04:18:54.702Z,0
2023-01-20T04:23:56.457Z,0
2023-01-20T04:28:58.119Z,0
2023-01-20T04:33:59.732Z,0
2023-01-20T04:39:01.363Z,0
2023-01-20T04:44:02.984Z,0
2023-01-20T04:49:04.628Z,0
2023-01-20T04:54:06.267Z,0
2023-01-20T04:59:07.987Z,0
2023-01-20T05:04:09.661Z,0
2023-01-20T05:09:11.244Z,0
2023-01-20T05:14:12.982Z,0
2023-01-20T05:19:14.654Z,0
2023-01-20T05:24:16.258Z,0
2023-01-20T05:29:17.879Z,0
2023-01-20T05:34:19.509Z,0
2023-01-20T05:39:21.172Z,0
2023-01-20T05:44:22.855Z,0
2023-01-20T05:49:24.474Z,0
2023-01-20T05:54:26.219Z,0
2023-01-20T05:59:27.875Z,0
2023-01-20T06:04:29.441Z,0
2023-01-20T06:09:31.274Z,0
2023-01-20T06:14:33.192Z,0
2023-01-20T06:19:34.936Z,0
2023-01-20T06:24:36.636Z,0
2023-01-20T06:29:38.267Z,0
2023-01-20T06:34:40.045Z,0
2023-01-20T06:39:41.656Z,0
2023-01-20T06:44:43.295Z,0
2023-01-20T06:49:44.972Z,0
2023-01-20T06:54:46.690Z,0
2023-01-20T06:59:48.393Z,0
2023-01-20T07:04:50.059Z,0
2023-01-20T07:09:51.695Z,0
2023-01-20T07:14:53.336Z,0
2023-01-20T07:19:55.098Z,0
2023-01-20T07:24:56.777Z,0
2023-01-20T07:29:58.381Z,0
2023-01-20T07:35:00.046Z,0
2023-01-20T07:40:01.758Z,0
2023-01-20T07:45:03.382Z,0
2023-01-20T07:50:05.062Z,0
2023-01-20T07:55:06.700Z,0
2023-01-20T08:00:08.372Z,0
2023-01-20T08:05:10.108Z,0
2023-01-20T08:10:11.772Z,0
2023-01-20T08:15:13.660Z,0
2023-01-20T08:20:15.434Z,0
2023-01-20T08:25:17.457Z,0
2023-01-20T08:30:19.354Z,0
2023-01-20T08:35:21.010Z,0
2023-01-20T08:40:22.687Z,0
2023-01-20T08:45:24.541Z,0
2023-01-20T08:50:26.255Z,0
2023-01-20T08:55:28.070Z,0
2023-01-20T09:00:29.868Z,0
2023-01-20T09:05:31.569Z,0
2023-01-20T09:10:33.240Z,0
2023-01-20T09:15:34.930Z,0
2023-01-20T09:20:36.728Z,0
2023-01-20T09:25:38.403Z,0
2023-01-20T09:30:40.237Z,0
2023-01-20T09:35:42.139Z,0
2023-01-20T09:40:43.806Z,0
2023-01-20T09:45:45.472Z,0
2023-01-20T09:50:47.161Z,0
2023-01-20T09:55:48.831Z,0
2023-01-20T10:00:50.497Z,0
2023-01-20T10:05:52.197Z,0
2023-01-20T10:10:53.913Z,0
2023-01-20T10:15:55.679Z,0
2023-01-20T10:20:57.334Z,0
2023-01-20T10:25:58.971Z,0
2023-01-20T10:31:00.823Z,0
2023-01-20T10:36:02.677Z,0
2023-01-20T10:41:04.280Z,0
2023-01-20T10:46:05.989Z,0
2023-01-20T10:51:07.672Z,0
2023-01-20T10:56:09.318Z,0
2023-01-20T11:01:10.953Z,0
2023-01-20T11:06:12.614Z,0
2023-01-20T11:11:14.275Z,0
2023-01-20T11:16:16.061Z,0
2023-01-20T11:21:17.756Z,0
2023-01-20T11:26:19.425Z,0
2023-01-20T11:31:21.187Z,0
2023-01-20T11:36:22.852Z,0
2023-01-20T11:41:24.453Z,0
2023-01-20T11:46:26.165Z,0
2023-01-20T11:51:27.856Z,0
2023-01-20T11:56:29.575Z,0
2023-01-20T12:01:31.204Z,0
2023-01-20T12:06:32.852Z,0
2023-01-20T12:11:34.516Z,0
2023-01-20T12:16:36.204Z,0
2023-01-20T12:21:37.867Z,0
2023-01-20T12:26:39.551Z,0
2023-01-20T12:31:41.264Z,0
2023-01-20T12:36:42.929Z,0
2023-01-20T12:41:44.632Z,0
2023-01-20T12:46:46.320Z,0
2023-01-20T12:51:48.042Z,0
2023-01-20T12:56:49.723Z,0
2023-01-20T13:01:51.305Z,0
2023-01-20T13:06:52.921Z,0
2023-01-20T13:11:54.536Z,0
2023-01-20T13:16:56.308Z,0
2023-01-20T13:22:07.671Z,0
2023-01-20T13:27:09.711Z,0
2023-01-20T13:32:11.336Z,0
2023-01-20T13:37:12.937Z,0
2023-01-20T13:42:14.627Z,0
2023-01-20T13:47:16.277Z,0
2023-01-20T13:52:17.881Z,0
2023-01-20T13:57:19.649Z,0
2023-01-20T14:02:21.341Z,0
2023-01-20T14:07:23.005Z,0
2023-01-20T14:12:24.714Z,0
2023-01-20T14:17:26.356Z,0
2023-01-20T14:22:27.995Z,0
2023-01-20T14:27:29.614Z,0
2023-01-20T14:32:31.282Z,0
2023-01-20T14:37:33.001Z,0
2023-01-20T14:42:34.659Z,0
2023-01-20T14:47:36.289Z,0
2023-01-20T14:52:37.962Z,0
2023-01-20T14:57:39.600Z,0
2023-01-20T15:02:41.276Z,0
2023-01-20T15:07:43.177Z,0
2023-01-20T15:12:44.797Z,0
2023-01-20T15:17:46.424Z,0
2023-01-20T15:22:48.380Z,1.16185
2023-01-20T15:27:50.018Z,3.76735
2023-01-20T15:32:51.672Z,7.5347
2023-01-20T15:37:53.510Z,11.43405
2023-01-20T15:42:55.110Z,18.40515
2023-01-20T15:47:56.751Z,23.42145
2023-01-20T15:52:58.433Z,28.43775
2023-01-20T15:58:00.014Z,38.10145
2023-01-20T16:03:01.719Z,50.2733
2023-01-20T16:08:03.536Z,59.75255
2023-01-20T16:13:05.272Z,72.5329
2023-01-20T16:18:06.936Z,83.96695
2023-01-20T16:23:08.532Z,95.1614
2023-01-20T16:28:10.155Z,99.4399
2023-01-20T16:33:11.847Z,110.5792
2023-01-20T16:38:13.504Z,130.884
2023-01-20T16:43:15.166Z,157.1825
2023-01-20T16:48:16.855Z,175.34805
2023-01-20T16:53:18.458Z,189.05065
2023-01-20T16:58:20.115Z,174.905
2023-01-20T17:03:21.766Z,180.95385
2023-01-20T17:08:23.621Z,189.0868
2023-01-20T17:13:25.254Z,214.1683
2023-01-20T17:18:26.903Z,269.4769
2023-01-20T17:23:28.541Z,239.4894
2023-01-20T17:28:30.157Z,259.9235
2023-01-20T17:33:31.862Z,259.00125
2023-01-20T17:38:33.511Z,265.419
2023-01-20T17:43:35.222Z,294.4101
2023-01-20T17:48:36.850Z,304.88575
2023-01-20T17:53:38.493Z,265.47415
2023-01-20T17:58:40.155Z,312.0223
2023-01-20T18:03:43.076Z,389.64565
2023-01-20T18:08:45.053Z,442.61155
2023-01-20T18:13:46.691Z,471.23375
2023-01-20T18:18:48.665Z,474.7193
2023-01-20T18:23:50.314Z,519.18335
2023-01-20T18:28:52.196Z,552.7667
2023-01-20T18:33:53.868Z,557.22965
2023-01-20T18:38:55.509Z,565.3626
2023-01-20T18:43:57.244Z,596.25335
2023-01-20T18:48:58.874Z,611.17295
2023-01-20T18:54:00.515Z,642.0637
2023-01-20T18:59:02.113Z,628.54555
2023-01-20T19:04:03.800Z,677.4174
2023-01-20T19:09:05.489Z,738.7007
2023-01-20T19:14:07.128Z,760.85
2023-01-20T19:19:08.833Z,788.0156
2023-01-20T19:24:10.496Z,793.58525
2023-01-20T19:29:12.223Z,803.673
2023-01-20T19:34:13.876Z,839.0267
2023-01-20T19:39:15.551Z,797.1811
2023-01-20T19:44:17.221Z,840.7419
2023-01-20T19:49:18.837Z,853.52225
2023-01-20T19:54:20.521Z,839.56105
2023-01-20T19:59:22.126Z,801.9388
2023-01-20T20:04:23.786Z,827.55465
2023-01-20T20:09:25.455Z,827.6098
2023-01-20T20:14:27.213Z,894.7765
2023-01-20T20:19:28.862Z,1041.8541
2023-01-20T20:24:30.515Z,1256.98635
2023-01-20T20:29:32.199Z,1420.05965
2023-01-20T20:34:34.134Z,1261.82005
2023-01-20T20:39:35.720Z,959.19545
2023-01-20T20:44:37.422Z,1052.7728
2023-01-20T20:49:39.037Z,1468.92965
2023-01-20T20:54:41.670Z,1252.6337
2023-01-20T20:59:58.219Z,996.92985
2023-01-20T21:05:00.662Z,1021.0168
2023-01-20T21:10:02.390Z,1259.3499
2023-01-20T21:15:04.062Z,1220.5848
2023-01-20T21:20:05.740Z,927.0914
2023-01-20T21:25:07.477Z,970.55905
2023-01-20T21:30:09.138Z,1109.96575
2023-01-20T21:35:11.004Z,1292.41605
2023-01-20T21:40:12.641Z,1182.99685
2023-01-20T21:45:14.330Z,1191.3351
2023-01-20T21:50:16.336Z,886.90585
2023-01-20T21:55:18.143Z,785.45415
2023-01-20T22:00:20.066Z,878.6816
2023-01-20T22:05:21.664Z,902.1049
2023-01-20T22:10:23.287Z,787.2625
2023-01-20T22:15:24.904Z,791.2291
2023-01-20T22:20:26.592Z,741.37985
2023-01-20T22:25:28.265Z,671.1878
2023-01-20T22:30:30.062Z,641.3676
2023-01-20T22:35:31.734Z,567.02635
2023-01-20T22:40:34.264Z,515.9031
2023-01-20T22:45:36.161Z,453.03205
2023-01-20T22:50:38.793Z,389.01815
2023-01-20T22:55:55.890Z,374.81735
2023-01-20T23:01:01.866Z,374.5036
2023-01-20T23:06:03.521Z,381.1058
2023-01-20T23:11:05.136Z,354.75215
2023-01-20T23:16:09.772Z,339.6481
2023-01-20T23:21:11.752Z,311.1552
2023-01-20T23:26:13.485Z,293.59815
2023-01-20T23:31:15.227Z,267.853
2023-01-20T23:36:17.074Z,243.2697
2023-01-20T23:41:18.715Z,221.19455
2023-01-20T23:46:20.382Z,201.0742
2023-01-20T23:51:22.156Z,170.6265
2023-01-20T23:56:23.903Z,159.6165
